Washington, IA

1:43 PM CDT on September 26, 2017 (GMT -0500)
Washington Municipal

Weather History for KAWG - November, 2012

Change the Weather History Date:

Saturday, November 3, 2012

  Actual Average Record
Temperature  
Mean Temperature 40 °F -  
Max Temperature 50 °F 52 °F 77 °F (2008)
Min Temperature 28 °F 35 °F 21 °F (1999)
Degree Days  
Heating Degree Days 25    
Moisture  
Dew Point 30 °F    
Average Humidity 66    
Maximum Humidity 93    
Minimum Humidity 47    
Precipitation  
Precipitation 0.00 in - - ()
Sea Level Pressure  
Sea Level Pressure 30.16 in    
Wind  
Wind Speed 8 mph (ENE)    
Max Wind Speed 12 mph    
Max Gust Speed -    
Visibility 10 miles    
Events      
Averages and records for this station are not official NWS values.
T = Trace of Precipitation, MM = Missing Value Source: NWS Daily Summary

Daily Weather History Graph

Daily Weather History Graph

Search for Another Location

Airport or City:

Trip Planner

Search our weather history database for the weather conditions in past years. The results will help you decide how hot, cold, wet, or windy it might be!

Date:

Astronomy

Nov. 03, 2012 Rise Set
Actual Time 7:40 AM CDT 5:58 PM CDT
Civil Twilight 7:12 AM CDT 6:27 PM CDT
Nautical Twilight 6:39 AM CDT 7:00 PM CDT
Astronomical Twilight 6:07 AM CDT 7:32 PM CDT
Moon 9:39 PM CDT (11/3) 11:46 AM CDT (11/3)
Length of Visible Light 11h 15m
Length of Day
10h 17m
Waning Gibbous, 80% of the Moon is Illuminated
Nov 3
Waning Gibbous
Nov 6
Last Quarter
Nov 13
New
Nov 20
First Quarter
Nov 28
Full

Hourly Weather History & Observations

Time (CDT) Temp. Windchill Dew Point Humidity Pressure Visibility Wind Dir Wind Speed Gust Speed Precip Events Conditions
12:15 AM 39.2 °F 32.5 °F 28.4 °F 65% 30.10 in 10.0 mi ENE 10.4 mph - N/A   Overcast
12:35 AM 39.2 °F 33.6 °F 28.4 °F 65% 30.10 in 10.0 mi East 8.1 mph - N/A   Overcast
12:55 AM 39.2 °F 33.6 °F 28.4 °F 65% 30.09 in 10.0 mi East 8.1 mph - N/A   Overcast
1:15 AM 39.2 °F 33.6 °F 28.4 °F 65% 30.10 in 10.0 mi East 8.1 mph - N/A   Overcast
1:35 AM 39.2 °F 33.6 °F 28.4 °F 65% 30.09 in 10.0 mi ENE 8.1 mph - N/A   Overcast
1:55 AM 39.2 °F 34.2 °F 28.4 °F 65% 30.09 in 10.0 mi East 6.9 mph - N/A   Overcast
2:15 AM 39.2 °F 33.0 °F 28.4 °F 65% 30.09 in 10.0 mi East 9.2 mph - N/A   Overcast
2:35 AM 39.2 °F 32.5 °F 28.4 °F 65% 30.08 in 10.0 mi East 10.4 mph - N/A   Overcast
2:55 AM 39.2 °F 33.0 °F 28.4 °F 65% 30.09 in 10.0 mi East 9.2 mph - N/A   Overcast
3:15 AM 41.0 °F 36.4 °F 28.4 °F 61% 30.10 in 10.0 mi ENE 6.9 mph - N/A   Overcast
3:35 AM 39.2 °F 33.6 °F 28.4 °F 65% 30.10 in 10.0 mi ENE 8.1 mph - N/A   Overcast
3:55 AM 39.2 °F 34.2 °F 28.4 °F 65% 30.10 in 10.0 mi ENE 6.9 mph - N/A   Overcast
4:15 AM 39.2 °F 33.6 °F 28.4 °F 65% 30.10 in 10.0 mi ENE 8.1 mph - N/A   Overcast
4:35 AM 39.2 °F 33.6 °F 28.4 °F 65% 30.11 in 10.0 mi ENE 8.1 mph - N/A   Overcast
4:55 AM 39.2 °F 33.0 °F 28.4 °F 65% 30.10 in 10.0 mi East 9.2 mph - N/A   Overcast
5:15 AM 39.2 °F 33.0 °F 28.4 °F 65% 30.11 in 10.0 mi East 9.2 mph - N/A   Overcast
5:35 AM 39.2 °F 33.0 °F 30.2 °F 70% 30.10 in 10.0 mi East 9.2 mph - N/A   Overcast
5:55 AM 39.2 °F 33.6 °F 30.2 °F 70% 30.11 in 10.0 mi East 8.1 mph - N/A   Overcast
6:15 AM 39.2 °F 34.2 °F 30.2 °F 70% 30.12 in 10.0 mi ENE 6.9 mph - N/A   Overcast
6:35 AM 39.2 °F 35.0 °F 30.2 °F 70% 30.14 in 10.0 mi NE 5.8 mph - N/A   Overcast
6:55 AM 39.2 °F 34.2 °F 30.2 °F 70% 30.14 in 10.0 mi ENE 6.9 mph - N/A   Overcast
7:15 AM 39.2 °F 34.2 °F 30.2 °F 70% 30.14 in 10.0 mi ENE 6.9 mph - N/A   Overcast
7:35 AM 39.2 °F 33.6 °F 30.2 °F 70% 30.15 in 10.0 mi ENE 8.1 mph - N/A   Overcast
7:55 AM 37.4 °F 32.8 °F 30.2 °F 75% 30.16 in 10.0 mi NE 5.8 mph - N/A   Mostly Cloudy
8:15 AM 35.6 °F 29.9 °F 30.2 °F 81% 30.17 in 10.0 mi NE 6.9 mph - N/A   Mostly Cloudy
8:35 AM 37.4 °F 31.4 °F 32.0 °F 81% 30.17 in 10.0 mi ENE 8.1 mph - N/A   Mostly Cloudy
8:55 AM 39.2 °F 33.6 °F 32.0 °F 75% 30.18 in 10.0 mi NE 8.1 mph - N/A   Mostly Cloudy
9:15 AM 41.0 °F 35.2 °F 33.8 °F 76% 30.19 in 10.0 mi ENE 9.2 mph - N/A   Overcast
9:35 AM 42.8 °F 36.6 °F 33.8 °F 70% 30.19 in 10.0 mi East 11.5 mph - N/A   Overcast
9:55 AM 42.8 °F 36.6 °F 33.8 °F 70% 30.19 in 10.0 mi East 11.5 mph - N/A   Overcast
10:15 AM 42.8 °F 37.0 °F 33.8 °F 70% 30.19 in 10.0 mi East 10.4 mph - N/A   Overcast
10:35 AM 42.8 °F 36.6 °F 33.8 °F 70% 30.18 in 10.0 mi East 11.5 mph - N/A   Overcast
10:55 AM 42.8 °F 36.6 °F 33.8 °F 70% 30.18 in 10.0 mi East 11.5 mph - N/A   Overcast
11:15 AM 44.6 °F 39.2 °F 33.8 °F 66% 30.19 in 10.0 mi ESE 10.4 mph - N/A   Mostly Cloudy
11:35 AM 44.6 °F 39.7 °F 33.8 °F 66% 30.19 in 10.0 mi East 9.2 mph - N/A   Scattered Clouds
11:55 AM 46.4 °F 42.4 °F 33.8 °F 62% 30.19 in 10.0 mi ESE 8.1 mph - N/A   Clear
12:15 PM 48.2 °F - 33.8 °F 58% 30.19 in 10.0 mi East 9.2 mph - N/A   Scattered Clouds
12:35 PM 46.4 °F 43.5 °F 33.8 °F 62% 30.19 in 10.0 mi East 5.8 mph - N/A   Mostly Cloudy
12:55 PM 48.2 °F - 33.8 °F 58% 30.17 in 10.0 mi East 9.2 mph - N/A   Mostly Cloudy
1:15 PM 48.2 °F - 32.0 °F 54% 30.18 in 10.0 mi East 9.2 mph - N/A   Scattered Clouds
1:35 PM 48.2 °F - 32.0 °F 54% 30.17 in 10.0 mi ENE 5.8 mph - N/A   Clear
1:55 PM 48.2 °F - 30.2 °F 50% 30.18 in 10.0 mi NNE 4.6 mph - N/A   Clear
2:15 PM 50.0 °F - 32.0 °F 50% 30.17 in 10.0 mi East 5.8 mph - N/A   Scattered Clouds
2:35 PM 50.0 °F - 32.0 °F 50% 30.17 in 10.0 mi East 8.1 mph - N/A   Mostly Cloudy
2:55 PM 50.0 °F - 30.2 °F 47% 30.17 in 10.0 mi NNE 8.1 mph - N/A   Overcast
3:15 PM 48.2 °F - 30.2 °F 50% 30.17 in 10.0 mi NE 8.1 mph - N/A   Overcast
3:35 PM 48.2 °F - 30.2 °F 50% 30.18 in 10.0 mi NNE 6.9 mph - N/A   Overcast
3:55 PM 48.2 °F - 30.2 °F 50% 30.18 in 10.0 mi ENE 4.6 mph - N/A   Mostly Cloudy
4:15 PM 48.2 °F - 30.2 °F 50% 30.18 in 10.0 mi ENE 4.6 mph - N/A   Mostly Cloudy
4:35 PM 48.2 °F - 30.2 °F 50% 30.18 in 10.0 mi Calm Calm - N/A   Overcast
4:55 PM 48.2 °F - 30.2 °F 50% 30.18 in 10.0 mi Calm Calm - N/A   Overcast
5:15 PM 48.2 °F - 30.2 °F 50% 30.18 in 10.0 mi East 4.6 mph - N/A   Overcast
5:35 PM 46.4 °F - 30.2 °F 53% 30.19 in 10.0 mi Calm Calm - N/A   Scattered Clouds
5:55 PM 44.6 °F - 30.2 °F 57% 30.19 in 10.0 mi Calm Calm - N/A   Mostly Cloudy
6:15 PM 42.8 °F 41.1 °F 30.2 °F 61% 30.19 in 7.0 mi East 3.5 mph - N/A   Overcast
6:35 PM 41.0 °F 39.0 °F 30.2 °F 65% 30.19 in 7.0 mi ENE 3.5 mph - N/A   Scattered Clouds
6:55 PM 39.2 °F 35.9 °F 30.2 °F 70% 30.19 in 7.0 mi ENE 4.6 mph - N/A   Clear
7:15 PM 37.4 °F 32.8 °F 28.4 °F 70% 30.20 in 4.0 mi ENE 5.8 mph - N/A   Haze
7:35 PM 37.4 °F 33.8 °F 30.2 °F 75% 30.20 in 10.0 mi ENE 4.6 mph - N/A   Clear
7:55 PM 39.2 °F 35.9 °F 30.2 °F 70% 30.21 in 10.0 mi ENE 4.6 mph - N/A   Clear
8:15 PM 37.4 °F 34.9 °F 30.2 °F 75% 30.21 in 10.0 mi ENE 3.5 mph - N/A   Clear
8:35 PM 37.4 °F 33.8 °F 30.2 °F 75% 30.21 in 10.0 mi ENE 4.6 mph - N/A   Clear
8:55 PM 37.4 °F 33.8 °F 30.2 °F 75% 30.21 in 10.0 mi East 4.6 mph - N/A   Clear
9:15 PM 37.4 °F 33.8 °F 30.2 °F 75% 30.21 in 10.0 mi ENE 4.6 mph - N/A   Clear
9:35 PM 35.6 °F 31.7 °F 30.2 °F 81% 30.22 in 10.0 mi East 4.6 mph - N/A   Clear
9:55 PM 33.8 °F 28.6 °F 28.4 °F 81% 30.21 in 10.0 mi East 5.8 mph - N/A   Clear
10:15 PM 33.8 °F 28.6 °F 28.4 °F 81% 30.21 in 10.0 mi East 5.8 mph - N/A   Clear
10:35 PM 32.0 °F 26.4 °F 26.6 °F 80% 30.21 in 10.0 mi ESE 5.8 mph - N/A   Clear
10:55 PM 32.0 °F 28.7 °F 28.4 °F 87% 30.21 in 10.0 mi SE 3.5 mph - N/A   Clear
11:15 PM 32.0 °F 26.4 °F 28.4 °F 87% 30.21 in 10.0 mi ESE 5.8 mph - N/A   Clear
11:35 PM 30.2 °F 24.3 °F 26.6 °F 86% 30.21 in 10.0 mi East 5.8 mph - N/A   Clear
11:55 PM 28.4 °F - 26.6 °F 93% 30.22 in 10.0 mi Calm Calm - N/A   Clear